sensor_id;sensor_type;location;lat;lon;timestamp;P1;durP1;ratioP1;P2;durP2;ratioP2
75429;SDS011;64127;51.488;5.462;2022-10-16T00:01:34;4.57;;;3.23;;
75429;SDS011;64127;51.488;5.462;2022-10-16T00:04:06;5.23;;;3.20;;
75429;SDS011;64127;51.488;5.462;2022-10-16T00:06:39;3.43;;;3.00;;
75429;SDS011;64127;51.488;5.462;2022-10-16T00:09:11;3.97;;;3.07;;
75429;SDS011;64127;51.488;5.462;2022-10-16T00:11:43;3.30;;;3.00;;
75429;SDS011;64127;51.488;5.462;2022-10-16T00:14:15;6.47;;;3.40;;
75429;SDS011;64127;51.488;5.462;2022-10-16T00:16:47;4.93;;;3.30;;
75429;SDS011;64127;51.488;5.462;2022-10-16T00:19:19;4.80;;;2.97;;
75429;SDS011;64127;51.488;5.462;2022-10-16T00:21:51;3.53;;;2.73;;
75429;SDS011;64127;51.488;5.462;2022-10-16T00:24:23;3.80;;;2.83;;
75429;SDS011;64127;51.488;5.462;2022-10-16T00:26:55;3.53;;;2.73;;
75429;SDS011;64127;51.488;5.462;2022-10-16T00:29:27;5.90;;;3.40;;
75429;SDS011;64127;51.488;5.462;2022-10-16T00:31:59;4.20;;;3.03;;
75429;SDS011;64127;51.488;5.462;2022-10-16T00:34:31;7.13;;;2.80;;
75429;SDS011;64127;51.488;5.462;2022-10-16T00:37:03;5.53;;;2.73;;
75429;SDS011;64127;51.488;5.462;2022-10-16T00:39:35;4.33;;;2.83;;
75429;SDS011;64127;51.488;5.462;2022-10-16T00:42:09;3.03;;;2.70;;
75429;SDS011;64127;51.488;5.462;2022-10-16T00:47:31;3.77;;;2.47;;
75429;SDS011;64127;51.488;5.462;2022-10-16T00:50:28;3.40;;;2.67;;
75429;SDS011;64127;51.488;5.462;2022-10-16T00:53:05;3.13;;;2.83;;
75429;SDS011;64127;51.488;5.462;2022-10-16T00:55:37;5.03;;;2.90;;
75429;SDS011;64127;51.488;5.462;2022-10-16T00:58:12;4.37;;;2.40;;
75429;SDS011;64127;51.488;5.462;2022-10-16T01:00:44;4.77;;;2.90;;
75429;SDS011;64127;51.488;5.462;2022-10-16T01:03:27;4.67;;;2.77;;
75429;SDS011;64127;51.488;5.462;2022-10-16T01:09:14;3.40;;;2.70;;
75429;SDS011;64127;51.488;5.462;2022-10-16T01:12:15;6.33;;;2.60;;
75429;SDS011;64127;51.488;5.462;2022-10-16T01:19:02;3.67;;;2.63;;
75429;SDS011;64127;51.488;5.462;2022-10-16T01:22:00;3.73;;;2.30;;
75429;SDS011;64127;51.488;5.462;2022-10-16T01:24:38;2.87;;;2.60;;
75429;SDS011;64127;51.488;5.462;2022-10-16T01:27:17;5.10;;;3.07;;
75429;SDS011;64127;51.488;5.462;2022-10-16T01:32:44;2.80;;;2.50;;
75429;SDS011;64127;51.488;5.462;2022-10-16T01:38:21;3.87;;;2.67;;
75429;SDS011;64127;51.488;5.462;2022-10-16T01:41:14;5.23;;;2.50;;
75429;SDS011;64127;51.488;5.462;2022-10-16T01:44:06;2.87;;;2.30;;
75429;SDS011;64127;51.488;5.462;2022-10-16T01:46:48;4.57;;;2.57;;
75429;SDS011;64127;51.488;5.462;2022-10-16T01:49:24;2.97;;;2.40;;
75429;SDS011;64127;51.488;5.462;2022-10-16T01:52:04;2.47;;;2.27;;
75429;SDS011;64127;51.488;5.462;2022-10-16T01:54:42;3.33;;;2.33;;
75429;SDS011;64127;51.488;5.462;2022-10-16T01:57:18;3.07;;;2.57;;
75429;SDS011;64127;51.488;5.462;2022-10-16T01:59:53;2.90;;;2.20;;
75429;SDS011;64127;51.488;5.462;2022-10-16T02:02:29;3.53;;;2.40;;
75429;SDS011;64127;51.488;5.462;2022-10-16T02:05:04;2.77;;;2.30;;
75429;SDS011;64127;51.488;5.462;2022-10-16T02:08:03;4.67;;;2.30;;
75429;SDS011;64127;51.488;5.462;2022-10-16T02:10:36;3.50;;;2.40;;
75429;SDS011;64127;51.488;5.462;2022-10-16T02:13:10;3.13;;;2.47;;
75429;SDS011;64127;51.488;5.462;2022-10-16T02:15:50;3.87;;;2.17;;
75429;SDS011;64127;51.488;5.462;2022-10-16T02:18:22;3.40;;;2.47;;
75429;SDS011;64127;51.488;5.462;2022-10-16T02:29:50;2.87;;;2.20;;
75429;SDS011;64127;51.488;5.462;2022-10-16T02:32:47;3.03;;;2.40;;
75429;SDS011;64127;51.488;5.462;2022-10-16T02:35:21;3.03;;;2.20;;
75429;SDS011;64127;51.488;5.462;2022-10-16T02:37:56;2.63;;;2.30;;
75429;SDS011;64127;51.488;5.462;2022-10-16T02:40:29;2.60;;;2.40;;
75429;SDS011;64127;51.488;5.462;2022-10-16T02:43:02;3.27;;;2.37;;
75429;SDS011;64127;51.488;5.462;2022-10-16T02:45:36;2.60;;;2.27;;
75429;SDS011;64127;51.488;5.462;2022-10-16T02:48:08;2.87;;;2.00;;
75429;SDS011;64127;51.488;5.462;2022-10-16T02:50:40;3.43;;;2.23;;
75429;SDS011;64127;51.488;5.462;2022-10-16T02:53:12;4.33;;;2.30;;
75429;SDS011;64127;51.488;5.462;2022-10-16T02:55:44;3.57;;;2.13;;
75429;SDS011;64127;51.488;5.462;2022-10-16T02:58:16;3.23;;;2.30;;
75429;SDS011;64127;51.488;5.462;2022-10-16T03:00:48;3.23;;;2.37;;
75429;SDS011;64127;51.488;5.462;2022-10-16T03:03:20;4.13;;;2.33;;
75429;SDS011;64127;51.488;5.462;2022-10-16T03:05:52;5.03;;;2.20;;
75429;SDS011;64127;51.488;5.462;2022-10-16T03:08:24;4.57;;;2.40;;
75429;SDS011;64127;51.488;5.462;2022-10-16T03:10:56;4.00;;;2.20;;
75429;SDS011;64127;51.488;5.462;2022-10-16T03:13:28;3.00;;;2.50;;
75429;SDS011;64127;51.488;5.462;2022-10-16T03:16:00;6.00;;;2.50;;
75429;SDS011;64127;51.488;5.462;2022-10-16T03:18:32;2.70;;;2.13;;
75429;SDS011;64127;51.488;5.462;2022-10-16T03:21:04;5.17;;;2.40;;
75429;SDS011;64127;51.488;5.462;2022-10-16T03:23:36;4.27;;;2.40;;
75429;SDS011;64127;51.488;5.462;2022-10-16T03:26:08;3.50;;;2.50;;
75429;SDS011;64127;51.488;5.462;2022-10-16T03:28:40;2.77;;;2.40;;
75429;SDS011;64127;51.488;5.462;2022-10-16T03:31:12;3.20;;;2.50;;
75429;SDS011;64127;51.488;5.462;2022-10-16T03:33:44;3.70;;;2.40;;
75429;SDS011;64127;51.488;5.462;2022-10-16T03:36:16;2.83;;;2.13;;
75429;SDS011;64127;51.488;5.462;2022-10-16T03:38:47;4.83;;;2.70;;
75429;SDS011;64127;51.488;5.462;2022-10-16T03:41:19;3.40;;;2.77;;
75429;SDS011;64127;51.488;5.462;2022-10-16T03:43:51;3.37;;;2.67;;
75429;SDS011;64127;51.488;5.462;2022-10-16T03:46:23;3.97;;;2.53;;
75429;SDS011;64127;51.488;5.462;2022-10-16T03:48:55;3.33;;;2.50;;
75429;SDS011;64127;51.488;5.462;2022-10-16T03:51:27;3.10;;;2.50;;
75429;SDS011;64127;51.488;5.462;2022-10-16T03:53:59;2.53;;;1.90;;
75429;SDS011;64127;51.488;5.462;2022-10-16T03:56:31;2.57;;;2.10;;
75429;SDS011;64127;51.488;5.462;2022-10-16T03:59:03;2.30;;;2.10;;
75429;SDS011;64127;51.488;5.462;2022-10-16T04:01:35;2.57;;;2.10;;
75429;SDS011;64127;51.488;5.462;2022-10-16T04:04:07;2.07;;;1.87;;
75429;SDS011;64127;51.488;5.462;2022-10-16T04:06:39;3.17;;;2.20;;
75429;SDS011;64127;51.488;5.462;2022-10-16T04:09:11;2.93;;;2.10;;
75429;SDS011;64127;51.488;5.462;2022-10-16T04:11:43;4.50;;;2.30;;
75429;SDS011;64127;51.488;5.462;2022-10-16T04:14:15;2.80;;;2.07;;
75429;SDS011;64127;51.488;5.462;2022-10-16T04:16:47;3.37;;;2.20;;
75429;SDS011;64127;51.488;5.462;2022-10-16T04:19:19;3.57;;;2.43;;
75429;SDS011;64127;51.488;5.462;2022-10-16T04:21:51;4.40;;;2.23;;
75429;SDS011;64127;51.488;5.462;2022-10-16T04:24:23;2.57;;;2.10;;
75429;SDS011;64127;51.488;5.462;2022-10-16T04:26:55;3.10;;;2.30;;
75429;SDS011;64127;51.488;5.462;2022-10-16T04:29:27;3.57;;;2.37;;
75429;SDS011;64127;51.488;5.462;2022-10-16T04:31:59;3.63;;;2.70;;
75429;SDS011;64127;51.488;5.462;2022-10-16T04:34:31;3.57;;;2.27;;
75429;SDS011;64127;51.488;5.462;2022-10-16T04:37:03;4.03;;;2.33;;
75429;SDS011;64127;51.488;5.462;2022-10-16T04:39:35;2.77;;;2.43;;
75429;SDS011;64127;51.488;5.462;2022-10-16T04:42:07;3.27;;;2.30;;
75429;SDS011;64127;51.488;5.462;2022-10-16T04:44:39;4.23;;;2.10;;
75429;SDS011;64127;51.488;5.462;2022-10-16T04:47:11;6.83;;;2.40;;
75429;SDS011;64127;51.488;5.462;2022-10-16T04:49:44;4.03;;;2.30;;
75429;SDS011;64127;51.488;5.462;2022-10-16T04:52:16;2.93;;;2.40;;
75429;SDS011;64127;51.488;5.462;2022-10-16T04:54:50;4.47;;;2.10;;
75429;SDS011;64127;51.488;5.462;2022-10-16T04:57:22;6.47;;;2.70;;
75429;SDS011;64127;51.488;5.462;2022-10-16T04:59:54;3.93;;;2.40;;
75429;SDS011;64127;51.488;5.462;2022-10-16T05:02:26;4.77;;;2.43;;
75429;SDS011;64127;51.488;5.462;2022-10-16T05:04:59;3.47;;;2.67;;
75429;SDS011;64127;51.488;5.462;2022-10-16T05:07:31;5.27;;;2.60;;
75429;SDS011;64127;51.488;5.462;2022-10-16T05:10:03;4.07;;;2.70;;
75429;SDS011;64127;51.488;5.462;2022-10-16T05:12:35;3.57;;;2.70;;
75429;SDS011;64127;51.488;5.462;2022-10-16T05:15:07;3.33;;;2.70;;
75429;SDS011;64127;51.488;5.462;2022-10-16T05:17:40;5.07;;;3.03;;
75429;SDS011;64127;51.488;5.462;2022-10-16T05:20:15;4.37;;;3.00;;
75429;SDS011;64127;51.488;5.462;2022-10-16T05:22:47;5.47;;;3.00;;
75429;SDS011;64127;51.488;5.462;2022-10-16T05:25:19;4.67;;;3.13;;
75429;SDS011;64127;51.488;5.462;2022-10-16T05:27:51;5.03;;;2.90;;
75429;SDS011;64127;51.488;5.462;2022-10-16T05:30:23;4.57;;;3.00;;
75429;SDS011;64127;51.488;5.462;2022-10-16T05:32:55;4.10;;;3.00;;
75429;SDS011;64127;51.488;5.462;2022-10-16T05:35:27;4.70;;;3.03;;
75429;SDS011;64127;51.488;5.462;2022-10-16T05:37:59;4.57;;;3.00;;
75429;SDS011;64127;51.488;5.462;2022-10-16T05:40:31;4.27;;;2.73;;
75429;SDS011;64127;51.488;5.462;2022-10-16T05:43:03;6.33;;;2.97;;
75429;SDS011;64127;51.488;5.462;2022-10-16T05:45:34;4.37;;;3.00;;
75429;SDS011;64127;51.488;5.462;2022-10-16T05:48:06;3.63;;;2.87;;
75429;SDS011;64127;51.488;5.462;2022-10-16T05:50:38;8.60;;;3.30;;
75429;SDS011;64127;51.488;5.462;2022-10-16T05:53:10;4.73;;;3.10;;
75429;SDS011;64127;51.488;5.462;2022-10-16T05:55:42;3.43;;;2.80;;
75429;SDS011;64127;51.488;5.462;2022-10-16T05:58:14;3.13;;;2.73;;
75429;SDS011;64127;51.488;5.462;2022-10-16T06:00:53;3.65;;;2.80;;
75429;SDS011;64127;51.488;5.462;2022-10-16T06:03:33;5.30;;;3.00;;
75429;SDS011;64127;51.488;5.462;2022-10-16T06:06:15;5.80;;;3.00;;
75429;SDS011;64127;51.488;5.462;2022-10-16T06:08:54;3.37;;;2.70;;
75429;SDS011;64127;51.488;5.462;2022-10-16T06:11:28;4.60;;;2.73;;
75429;SDS011;64127;51.488;5.462;2022-10-16T06:14:03;5.00;;;2.77;;
75429;SDS011;64127;51.488;5.462;2022-10-16T06:16:38;3.00;;;2.80;;
75429;SDS011;64127;51.488;5.462;2022-10-16T06:19:10;4.63;;;3.20;;
75429;SDS011;64127;51.488;5.462;2022-10-16T06:21:42;3.20;;;2.90;;
75429;SDS011;64127;51.488;5.462;2022-10-16T06:24:14;7.03;;;3.00;;
75429;SDS011;64127;51.488;5.462;2022-10-16T06:26:46;5.17;;;2.60;;
75429;SDS011;64127;51.488;5.462;2022-10-16T06:29:18;3.50;;;3.03;;
75429;SDS011;64127;51.488;5.462;2022-10-16T06:31:50;3.97;;;2.90;;
75429;SDS011;64127;51.488;5.462;2022-10-16T06:34:22;6.37;;;2.97;;
75429;SDS011;64127;51.488;5.462;2022-10-16T06:36:54;4.20;;;3.03;;
75429;SDS011;64127;51.488;5.462;2022-10-16T06:39:26;5.70;;;2.90;;
75429;SDS011;64127;51.488;5.462;2022-10-16T06:41:58;4.50;;;2.90;;
75429;SDS011;64127;51.488;5.462;2022-10-16T06:44:35;5.77;;;2.90;;
75429;SDS011;64127;51.488;5.462;2022-10-16T06:47:07;3.77;;;3.13;;
75429;SDS011;64127;51.488;5.462;2022-10-16T06:49:38;6.97;;;3.60;;
75429;SDS011;64127;51.488;5.462;2022-10-16T06:52:10;4.17;;;2.90;;
75429;SDS011;64127;51.488;5.462;2022-10-16T06:54:42;4.83;;;3.13;;
75429;SDS011;64127;51.488;5.462;2022-10-16T06:57:14;3.47;;;3.00;;
75429;SDS011;64127;51.488;5.462;2022-10-16T06:59:47;4.93;;;3.03;;
75429;SDS011;64127;51.488;5.462;2022-10-16T07:02:24;5.07;;;2.90;;
75429;SDS011;64127;51.488;5.462;2022-10-16T07:04:56;4.73;;;3.00;;
75429;SDS011;64127;51.488;5.462;2022-10-16T07:07:29;3.37;;;3.00;;
75429;SDS011;64127;51.488;5.462;2022-10-16T07:10:01;6.00;;;2.70;;
75429;SDS011;64127;51.488;5.462;2022-10-16T07:12:33;5.33;;;3.00;;
75429;SDS011;64127;51.488;5.462;2022-10-16T07:15:05;3.00;;;2.67;;
75429;SDS011;64127;51.488;5.462;2022-10-16T07:17:37;6.13;;;2.70;;
75429;SDS011;64127;51.488;5.462;2022-10-16T07:20:09;3.40;;;2.70;;
75429;SDS011;64127;51.488;5.462;2022-10-16T07:22:41;3.03;;;2.73;;
75429;SDS011;64127;51.488;5.462;2022-10-16T07:25:13;5.20;;;2.87;;
75429;SDS011;64127;51.488;5.462;2022-10-16T07:27:45;4.80;;;2.60;;
75429;SDS011;64127;51.488;5.462;2022-10-16T07:30:17;3.80;;;2.60;;
75429;SDS011;64127;51.488;5.462;2022-10-16T07:32:50;4.27;;;2.57;;
75429;SDS011;64127;51.488;5.462;2022-10-16T07:35:22;2.80;;;2.33;;
75429;SDS011;64127;51.488;5.462;2022-10-16T07:37:54;2.70;;;2.50;;
75429;SDS011;64127;51.488;5.462;2022-10-16T07:40:26;3.60;;;2.70;;
75429;SDS011;64127;51.488;5.462;2022-10-16T07:42:58;4.30;;;2.27;;
75429;SDS011;64127;51.488;5.462;2022-10-16T07:45:30;3.87;;;2.30;;
75429;SDS011;64127;51.488;5.462;2022-10-16T07:48:02;3.30;;;2.07;;
75429;SDS011;64127;51.488;5.462;2022-10-16T07:50:34;5.00;;;1.70;;
75429;SDS011;64127;51.488;5.462;2022-10-16T07:53:06;2.10;;;1.90;;
75429;SDS011;64127;51.488;5.462;2022-10-16T07:55:38;4.67;;;2.27;;
75429;SDS011;64127;51.488;5.462;2022-10-16T07:58:10;1.90;;;1.70;;
75429;SDS011;64127;51.488;5.462;2022-10-16T08:00:42;3.53;;;1.97;;
75429;SDS011;64127;51.488;5.462;2022-10-16T08:03:14;2.00;;;1.80;;
75429;SDS011;64127;51.488;5.462;2022-10-16T08:05:46;4.10;;;1.70;;
75429;SDS011;64127;51.488;5.462;2022-10-16T08:08:18;3.30;;;1.77;;
75429;SDS011;64127;51.488;5.462;2022-10-16T08:10:51;3.57;;;2.00;;
75429;SDS011;64127;51.488;5.462;2022-10-16T08:13:23;4.87;;;2.07;;
75429;SDS011;64127;51.488;5.462;2022-10-16T08:15:55;2.07;;;1.77;;
75429;SDS011;64127;51.488;5.462;2022-10-16T08:18:27;2.40;;;2.00;;
75429;SDS011;64127;51.488;5.462;2022-10-16T08:20:59;2.17;;;1.60;;
75429;SDS011;64127;51.488;5.462;2022-10-16T08:23:31;3.40;;;1.80;;
75429;SDS011;64127;51.488;5.462;2022-10-16T08:26:05;2.77;;;1.60;;
75429;SDS011;64127;51.488;5.462;2022-10-16T08:28:39;5.63;;;1.70;;
75429;SDS011;64127;51.488;5.462;2022-10-16T08:31:12;2.33;;;1.60;;
75429;SDS011;64127;51.488;5.462;2022-10-16T08:33:47;3.07;;;1.70;;
75429;SDS011;64127;51.488;5.462;2022-10-16T08:36:19;5.03;;;1.80;;
75429;SDS011;64127;51.488;5.462;2022-10-16T08:38:51;3.20;;;1.87;;
75429;SDS011;64127;51.488;5.462;2022-10-16T08:45:02;4.57;;;1.90;;
75429;SDS011;64127;51.488;5.462;2022-10-16T08:51:01;2.27;;;1.70;;
75429;SDS011;64127;51.488;5.462;2022-10-16T08:53:46;4.90;;;2.10;;
75429;SDS011;64127;51.488;5.462;2022-10-16T08:56:25;4.73;;;1.70;;
75429;SDS011;64127;51.488;5.462;2022-10-16T08:58:58;4.00;;;1.80;;
75429;SDS011;64127;51.488;5.462;2022-10-16T09:01:44;6.10;;;2.17;;
75429;SDS011;64127;51.488;5.462;2022-10-16T09:07:36;3.57;;;1.80;;
75429;SDS011;64127;51.488;5.462;2022-10-16T09:14:02;5.03;;;2.03;;
75429;SDS011;64127;51.488;5.462;2022-10-16T09:17:32;4.17;;;1.73;;
75429;SDS011;64127;51.488;5.462;2022-10-16T09:25:35;4.00;;;1.83;;
75429;SDS011;64127;51.488;5.462;2022-10-16T09:28:10;3.83;;;1.67;;
75429;SDS011;64127;51.488;5.462;2022-10-16T09:30:43;3.10;;;1.97;;
75429;SDS011;64127;51.488;5.462;2022-10-16T09:33:17;8.10;;;2.20;;
75429;SDS011;64127;51.488;5.462;2022-10-16T09:35:54;4.10;;;1.87;;
75429;SDS011;64127;51.488;5.462;2022-10-16T09:38:34;3.70;;;1.87;;
75429;SDS011;64127;51.488;5.462;2022-10-16T09:43:56;4.43;;;2.10;;
75429;SDS011;64127;51.488;5.462;2022-10-16T09:46:31;6.00;;;2.10;;
75429;SDS011;64127;51.488;5.462;2022-10-16T09:49:23;2.40;;;1.63;;
75429;SDS011;64127;51.488;5.462;2022-10-16T09:52:14;3.67;;;1.93;;
75429;SDS011;64127;51.488;5.462;2022-10-16T09:54:50;5.23;;;2.40;;
75429;SDS011;64127;51.488;5.462;2022-10-16T09:57:23;5.47;;;1.80;;
75429;SDS011;64127;51.488;5.462;2022-10-16T09:59:57;5.17;;;1.90;;
75429;SDS011;64127;51.488;5.462;2022-10-16T10:02:30;4.53;;;1.90;;
75429;SDS011;64127;51.488;5.462;2022-10-16T10:05:20;4.37;;;2.07;;
75429;SDS011;64127;51.488;5.462;2022-10-16T10:08:01;5.33;;;2.10;;
75429;SDS011;64127;51.488;5.462;2022-10-16T10:10:39;5.33;;;2.00;;
75429;SDS011;64127;51.488;5.462;2022-10-16T10:13:17;5.77;;;1.97;;
75429;SDS011;64127;51.488;5.462;2022-10-16T10:15:55;5.70;;;2.00;;
75429;SDS011;64127;51.488;5.462;2022-10-16T10:18:27;6.87;;;2.00;;
75429;SDS011;64127;51.488;5.462;2022-10-16T10:20:59;4.77;;;2.10;;
75429;SDS011;64127;51.488;5.462;2022-10-16T10:23:38;6.67;;;2.43;;
75429;SDS011;64127;51.488;5.462;2022-10-16T10:26:18;5.33;;;2.17;;
75429;SDS011;64127;51.488;5.462;2022-10-16T10:29:02;6.37;;;2.43;;
75429;SDS011;64127;51.488;5.462;2022-10-16T10:32:06;5.60;;;2.17;;
75429;SDS011;64127;51.488;5.462;2022-10-16T10:38:00;5.00;;;2.33;;
75429;SDS011;64127;51.488;5.462;2022-10-16T10:47:05;4.97;;;2.00;;
75429;SDS011;64127;51.488;5.462;2022-10-16T11:05:03;5.03;;;2.10;;
75429;SDS011;64127;51.488;5.462;2022-10-16T11:10:49;5.87;;;2.17;;
75429;SDS011;64127;51.488;5.462;2022-10-16T11:16:30;7.70;;;2.00;;
75429;SDS011;64127;51.488;5.462;2022-10-16T11:28:06;6.80;;;2.23;;
75429;SDS011;64127;51.488;5.462;2022-10-16T11:31:04;7.80;;;2.30;;
75429;SDS011;64127;51.488;5.462;2022-10-16T11:33:57;7.77;;;2.00;;
75429;SDS011;64127;51.488;5.462;2022-10-16T11:37:05;5.60;;;2.20;;
75429;SDS011;64127;51.488;5.462;2022-10-16T11:39:45;6.23;;;2.30;;
75429;SDS011;64127;51.488;5.462;2022-10-16T11:42:30;5.50;;;2.07;;
75429;SDS011;64127;51.488;5.462;2022-10-16T11:48:23;5.60;;;1.90;;
75429;SDS011;64127;51.488;5.462;2022-10-16T11:51:34;7.30;;;2.23;;
75429;SDS011;64127;51.488;5.462;2022-10-16T11:54:21;5.80;;;2.00;;
75429;SDS011;64127;51.488;5.462;2022-10-16T11:57:09;6.93;;;2.00;;
75429;SDS011;64127;51.488;5.462;2022-10-16T12:03:02;6.70;;;2.00;;
75429;SDS011;64127;51.488;5.462;2022-10-16T12:07:05;6.60;;;1.70;;
75429;SDS011;64127;51.488;5.462;2022-10-16T12:09:38;6.30;;;2.23;;
75429;SDS011;64127;51.488;5.462;2022-10-16T12:12:58;5.67;;;2.10;;
75429;SDS011;64127;51.488;5.462;2022-10-16T12:18:24;7.77;;;2.10;;
75429;SDS011;64127;51.488;5.462;2022-10-16T12:20:57;6.23;;;1.83;;
75429;SDS011;64127;51.488;5.462;2022-10-16T12:23:49;5.53;;;1.60;;
75429;SDS011;64127;51.488;5.462;2022-10-16T12:26:34;3.80;;;1.93;;
75429;SDS011;64127;51.488;5.462;2022-10-16T12:29:14;6.40;;;2.00;;
75429;SDS011;64127;51.488;5.462;2022-10-16T12:31:54;5.73;;;1.70;;
75429;SDS011;64127;51.488;5.462;2022-10-16T12:34:38;4.70;;;1.93;;
75429;SDS011;64127;51.488;5.462;2022-10-16T12:37:18;3.63;;;1.50;;
75429;SDS011;64127;51.488;5.462;2022-10-16T12:43:23;6.43;;;1.90;;
75429;SDS011;64127;51.488;5.462;2022-10-16T12:46:04;4.67;;;1.77;;
75429;SDS011;64127;51.488;5.462;2022-10-16T12:51:46;3.33;;;1.77;;
75429;SDS011;64127;51.488;5.462;2022-10-16T12:54:20;5.68;;;1.90;;
75429;SDS011;64127;51.488;5.462;2022-10-16T12:57:20;4.03;;;1.50;;
75429;SDS011;64127;51.488;5.462;2022-10-16T13:00:41;4.03;;;1.43;;
75429;SDS011;64127;51.488;5.462;2022-10-16T13:03:25;3.60;;;1.53;;
75429;SDS011;64127;51.488;5.462;2022-10-16T13:18:27;5.50;;;1.40;;
75429;SDS011;64127;51.488;5.462;2022-10-16T13:30:09;4.63;;;1.67;;
75429;SDS011;64127;51.488;5.462;2022-10-16T13:33:02;4.00;;;1.50;;
75429;SDS011;64127;51.488;5.462;2022-10-16T13:35:46;5.20;;;2.00;;
75429;SDS011;64127;51.488;5.462;2022-10-16T13:38:29;7.60;;;2.67;;
75429;SDS011;64127;51.488;5.462;2022-10-16T13:41:14;4.23;;;1.67;;
75429;SDS011;64127;51.488;5.462;2022-10-16T13:43:49;7.50;;;2.10;;
75429;SDS011;64127;51.488;5.462;2022-10-16T13:46:27;5.07;;;1.63;;
75429;SDS011;64127;51.488;5.462;2022-10-16T13:49:01;12.80;;;5.97;;
75429;SDS011;64127;51.488;5.462;2022-10-16T13:51:57;5.17;;;1.90;;
75429;SDS011;64127;51.488;5.462;2022-10-16T13:54:31;3.83;;;1.80;;
75429;SDS011;64127;51.488;5.462;2022-10-16T13:57:06;6.83;;;1.90;;
75429;SDS011;64127;51.488;5.462;2022-10-16T13:59:57;5.40;;;1.40;;
75429;SDS011;64127;51.488;5.462;2022-10-16T14:05:12;4.67;;;1.50;;
75429;SDS011;64127;51.488;5.462;2022-10-16T14:07:47;3.93;;;1.50;;
75429;SDS011;64127;51.488;5.462;2022-10-16T14:10:31;2.77;;;1.33;;
75429;SDS011;64127;51.488;5.462;2022-10-16T14:13:05;6.30;;;1.70;;
75429;SDS011;64127;51.488;5.462;2022-10-16T14:15:39;3.40;;;1.60;;
75429;SDS011;64127;51.488;5.462;2022-10-16T14:18:15;4.27;;;1.50;;
75429;SDS011;64127;51.488;5.462;2022-10-16T14:20:53;3.70;;;1.70;;
75429;SDS011;64127;51.488;5.462;2022-10-16T14:23:32;2.20;;;1.40;;
75429;SDS011;64127;51.488;5.462;2022-10-16T14:28:44;4.17;;;1.43;;
75429;SDS011;64127;51.488;5.462;2022-10-16T14:31:32;2.30;;;1.30;;
75429;SDS011;64127;51.488;5.462;2022-10-16T14:34:05;3.90;;;1.47;;
75429;SDS011;64127;51.488;5.462;2022-10-16T14:37:24;5.13;;;1.63;;
75429;SDS011;64127;51.488;5.462;2022-10-16T14:40:00;2.70;;;1.47;;
75429;SDS011;64127;51.488;5.462;2022-10-16T14:42:34;2.13;;;1.40;;
75429;SDS011;64127;51.488;5.462;2022-10-16T14:45:07;2.27;;;1.43;;
75429;SDS011;64127;51.488;5.462;2022-10-16T14:47:47;3.40;;;1.73;;
75429;SDS011;64127;51.488;5.462;2022-10-16T14:50:24;4.90;;;1.70;;
75429;SDS011;64127;51.488;5.462;2022-10-16T14:52:56;3.53;;;1.43;;
75429;SDS011;64127;51.488;5.462;2022-10-16T14:55:30;2.77;;;1.53;;
75429;SDS011;64127;51.488;5.462;2022-10-16T14:58:02;3.33;;;1.77;;
75429;SDS011;64127;51.488;5.462;2022-10-16T15:00:34;2.90;;;1.50;;
75429;SDS011;64127;51.488;5.462;2022-10-16T15:03:06;3.00;;;1.33;;
75429;SDS011;64127;51.488;5.462;2022-10-16T15:05:38;3.47;;;1.50;;
75429;SDS011;64127;51.488;5.462;2022-10-16T15:08:10;2.60;;;1.57;;
75429;SDS011;64127;51.488;5.462;2022-10-16T15:10:43;10.47;;;8.47;;
75429;SDS011;64127;51.488;5.462;2022-10-16T15:13:15;3.73;;;2.00;;
75429;SDS011;64127;51.488;5.462;2022-10-16T15:15:47;3.73;;;2.30;;
75429;SDS011;64127;51.488;5.462;2022-10-16T15:18:20;4.10;;;2.60;;
75429;SDS011;64127;51.488;5.462;2022-10-16T15:20:53;3.33;;;1.70;;
75429;SDS011;64127;51.488;5.462;2022-10-16T15:23:25;3.23;;;1.67;;
75429;SDS011;64127;51.488;5.462;2022-10-16T15:26:02;2.70;;;1.60;;
75429;SDS011;64127;51.488;5.462;2022-10-16T15:28:34;3.43;;;1.60;;
75429;SDS011;64127;51.488;5.462;2022-10-16T15:31:06;2.90;;;1.50;;
75429;SDS011;64127;51.488;5.462;2022-10-16T15:33:38;3.90;;;1.63;;
75429;SDS011;64127;51.488;5.462;2022-10-16T15:36:10;1.77;;;1.37;;
75429;SDS011;64127;51.488;5.462;2022-10-16T15:38:42;2.13;;;1.30;;
75429;SDS011;64127;51.488;5.462;2022-10-16T15:41:15;2.50;;;1.67;;
75429;SDS011;64127;51.488;5.462;2022-10-16T15:43:50;4.10;;;1.70;;
75429;SDS011;64127;51.488;5.462;2022-10-16T15:46:23;1.77;;;1.40;;
75429;SDS011;64127;51.488;5.462;2022-10-16T15:48:56;2.80;;;1.60;;
75429;SDS011;64127;51.488;5.462;2022-10-16T15:51:29;3.47;;;1.70;;
75429;SDS011;64127;51.488;5.462;2022-10-16T15:54:04;2.00;;;1.40;;
75429;SDS011;64127;51.488;5.462;2022-10-16T15:56:36;3.00;;;1.60;;
75429;SDS011;64127;51.488;5.462;2022-10-16T15:59:08;3.63;;;1.80;;
75429;SDS011;64127;51.488;5.462;2022-10-16T16:01:40;5.37;;;1.70;;
75429;SDS011;64127;51.488;5.462;2022-10-16T16:04:12;2.87;;;1.60;;
75429;SDS011;64127;51.488;5.462;2022-10-16T16:07:04;2.20;;;1.70;;
75429;SDS011;64127;51.488;5.462;2022-10-16T16:09:38;4.10;;;1.90;;
75429;SDS011;64127;51.488;5.462;2022-10-16T16:12:10;3.07;;;1.50;;
75429;SDS011;64127;51.488;5.462;2022-10-16T16:14:42;2.70;;;1.90;;
75429;SDS011;64127;51.488;5.462;2022-10-16T16:17:17;3.00;;;2.00;;
75429;SDS011;64127;51.488;5.462;2022-10-16T16:19:49;4.30;;;3.33;;
75429;SDS011;64127;51.488;5.462;2022-10-16T16:22:22;4.93;;;3.00;;
75429;SDS011;64127;51.488;5.462;2022-10-16T16:24:54;5.47;;;3.10;;
75429;SDS011;64127;51.488;5.462;2022-10-16T16:27:26;5.90;;;2.50;;
75429;SDS011;64127;51.488;5.462;2022-10-16T16:30:00;3.90;;;2.27;;
75429;SDS011;64127;51.488;5.462;2022-10-16T16:32:34;3.97;;;2.47;;
75429;SDS011;64127;51.488;5.462;2022-10-16T16:35:06;5.43;;;2.70;;
75429;SDS011;64127;51.488;5.462;2022-10-16T16:37:38;3.87;;;2.70;;
75429;SDS011;64127;51.488;5.462;2022-10-16T16:40:10;2.73;;;2.20;;
75429;SDS011;64127;51.488;5.462;2022-10-16T16:42:42;7.57;;;5.73;;
75429;SDS011;64127;51.488;5.462;2022-10-16T16:45:14;7.20;;;5.72;;
75429;SDS011;64127;51.488;5.462;2022-10-16T16:47:47;9.20;;;6.60;;
75429;SDS011;64127;51.488;5.462;2022-10-16T16:50:18;6.90;;;5.33;;
75429;SDS011;64127;51.488;5.462;2022-10-16T16:52:50;9.83;;;7.33;;
75429;SDS011;64127;51.488;5.462;2022-10-16T16:55:22;12.00;;;8.53;;
75429;SDS011;64127;51.488;5.462;2022-10-16T16:57:54;11.60;;;7.43;;
75429;SDS011;64127;51.488;5.462;2022-10-16T17:00:27;9.80;;;6.57;;
75429;SDS011;64127;51.488;5.462;2022-10-16T17:02:59;9.45;;;6.80;;
75429;SDS011;64127;51.488;5.462;2022-10-16T17:05:31;7.37;;;5.20;;
75429;SDS011;64127;51.488;5.462;2022-10-16T17:08:06;8.20;;;3.80;;
75429;SDS011;64127;51.488;5.462;2022-10-16T17:10:43;4.33;;;3.00;;
75429;SDS011;64127;51.488;5.462;2022-10-16T17:13:15;6.10;;;2.70;;
75429;SDS011;64127;51.488;5.462;2022-10-16T17:15:48;8.83;;;7.63;;
75429;SDS011;64127;51.488;5.462;2022-10-16T17:18:22;11.47;;;10.10;;
75429;SDS011;64127;51.488;5.462;2022-10-16T17:20:56;16.07;;;13.20;;
75429;SDS011;64127;51.488;5.462;2022-10-16T17:23:31;19.30;;;15.60;;
75429;SDS011;64127;51.488;5.462;2022-10-16T17:28:44;8.27;;;6.07;;
75429;SDS011;64127;51.488;5.462;2022-10-16T17:31:17;6.03;;;5.43;;
75429;SDS011;64127;51.488;5.462;2022-10-16T17:34:00;4.67;;;4.00;;
75429;SDS011;64127;51.488;5.462;2022-10-16T17:36:36;5.43;;;3.53;;
75429;SDS011;64127;51.488;5.462;2022-10-16T17:39:14;4.33;;;2.90;;
75429;SDS011;64127;51.488;5.462;2022-10-16T17:41:48;4.20;;;2.80;;
75429;SDS011;64127;51.488;5.462;2022-10-16T17:44:20;5.67;;;2.70;;
75429;SDS011;64127;51.488;5.462;2022-10-16T17:46:52;4.33;;;2.70;;
75429;SDS011;64127;51.488;5.462;2022-10-16T17:49:24;4.65;;;2.65;;
75429;SDS011;64127;51.488;5.462;2022-10-16T17:51:56;4.70;;;2.90;;
75429;SDS011;64127;51.488;5.462;2022-10-16T17:54:31;5.60;;;2.70;;